sensor_id;sensor_type;location;lat;lon;timestamp;P1;durP1;ratioP1;P2;durP2;ratioP2
40288;SDS011;28991;52.028;5.526;2023-03-23T00:02:19;0.63;;;0.50;;
40288;SDS011;28991;52.028;5.526;2023-03-23T00:04:57;1.10;;;0.52;;
40288;SDS011;28991;52.028;5.526;2023-03-23T00:07:25;0.50;;;0.50;;
40288;SDS011;28991;52.028;5.526;2023-03-23T00:09:52;0.93;;;0.50;;
40288;SDS011;28991;52.028;5.526;2023-03-23T00:12:24;0.40;;;0.40;;
40288;SDS011;28991;52.028;5.526;2023-03-23T00:14:57;0.60;;;0.55;;
40288;SDS011;28991;52.028;5.526;2023-03-23T00:17:28;0.40;;;0.40;;
40288;SDS011;28991;52.028;5.526;2023-03-23T00:19:54;1.08;;;0.50;;
40288;SDS011;28991;52.028;5.526;2023-03-23T00:22:21;0.55;;;0.47;;
40288;SDS011;28991;52.028;5.526;2023-03-23T00:24:49;0.47;;;0.47;;
40288;SDS011;28991;52.028;5.526;2023-03-23T00:27:16;0.63;;;0.40;;
40288;SDS011;28991;52.028;5.526;2023-03-23T00:29:42;1.80;;;0.63;;
40288;SDS011;28991;52.028;5.526;2023-03-23T00:32:10;0.70;;;0.57;;
40288;SDS011;28991;52.028;5.526;2023-03-23T00:34:42;0.75;;;0.60;;
40288;SDS011;28991;52.028;5.526;2023-03-23T00:37:10;0.40;;;0.40;;
40288;SDS011;28991;52.028;5.526;2023-03-23T00:39:37;0.40;;;0.40;;
40288;SDS011;28991;52.028;5.526;2023-03-23T00:42:03;0.40;;;0.35;;
40288;SDS011;28991;52.028;5.526;2023-03-23T00:44:30;0.65;;;0.30;;
40288;SDS011;28991;52.028;5.526;2023-03-23T00:46:58;0.75;;;0.60;;
40288;SDS011;28991;52.028;5.526;2023-03-23T00:49:24;0.40;;;0.40;;
40288;SDS011;28991;52.028;5.526;2023-03-23T00:51:51;0.57;;;0.55;;
40288;SDS011;28991;52.028;5.526;2023-03-23T00:54:21;0.57;;;0.57;;
40288;SDS011;28991;52.028;5.526;2023-03-23T00:56:48;1.20;;;0.55;;
40288;SDS011;28991;52.028;5.526;2023-03-23T00:59:14;0.60;;;0.60;;
40288;SDS011;28991;52.028;5.526;2023-03-23T01:01:40;0.55;;;0.45;;
40288;SDS011;28991;52.028;5.526;2023-03-23T01:04:06;0.40;;;0.40;;
40288;SDS011;28991;52.028;5.526;2023-03-23T01:06:36;0.52;;;0.52;;
40288;SDS011;28991;52.028;5.526;2023-03-23T01:09:08;0.40;;;0.40;;
40288;SDS011;28991;52.028;5.526;2023-03-23T01:11:35;1.40;;;0.60;;
40288;SDS011;28991;52.028;5.526;2023-03-23T01:14:02;0.90;;;0.52;;
40288;SDS011;28991;52.028;5.526;2023-03-23T01:16:28;0.43;;;0.40;;
40288;SDS011;28991;52.028;5.526;2023-03-23T01:18:54;0.45;;;0.40;;
40288;SDS011;28991;52.028;5.526;2023-03-23T01:21:20;0.75;;;0.57;;
40288;SDS011;28991;52.028;5.526;2023-03-23T01:23:46;0.43;;;0.40;;
40288;SDS011;28991;52.028;5.526;2023-03-23T01:26:14;0.57;;;0.40;;
40288;SDS011;28991;52.028;5.526;2023-03-23T01:28:42;0.50;;;0.50;;
40288;SDS011;28991;52.028;5.526;2023-03-23T01:31:10;0.40;;;0.40;;
40288;SDS011;28991;52.028;5.526;2023-03-23T01:33:38;0.55;;;0.50;;
40288;SDS011;28991;52.028;5.526;2023-03-23T01:36:05;0.40;;;0.40;;
40288;SDS011;28991;52.028;5.526;2023-03-23T01:38:33;0.50;;;0.47;;
40288;SDS011;28991;52.028;5.526;2023-03-23T01:41:00;0.52;;;0.30;;
40288;SDS011;28991;52.028;5.526;2023-03-23T01:43:26;0.45;;;0.40;;
40288;SDS011;28991;52.028;5.526;2023-03-23T01:45:52;0.55;;;0.50;;
40288;SDS011;28991;52.028;5.526;2023-03-23T01:48:19;0.50;;;0.50;;
40288;SDS011;28991;52.028;5.526;2023-03-23T01:53:40;0.52;;;0.52;;
40288;SDS011;28991;52.028;5.526;2023-03-23T01:56:12;0.30;;;0.30;;
40288;SDS011;28991;52.028;5.526;2023-03-23T01:58:40;0.57;;;0.55;;
40288;SDS011;28991;52.028;5.526;2023-03-23T02:01:09;0.65;;;0.40;;
40288;SDS011;28991;52.028;5.526;2023-03-23T02:03:37;0.32;;;0.32;;
40288;SDS011;28991;52.028;5.526;2023-03-23T02:06:05;0.40;;;0.40;;
40288;SDS011;28991;52.028;5.526;2023-03-23T02:08:31;0.30;;;0.30;;
40288;SDS011;28991;52.028;5.526;2023-03-23T02:10:58;0.50;;;0.32;;
40288;SDS011;28991;52.028;5.526;2023-03-23T02:13:25;0.35;;;0.30;;
40288;SDS011;28991;52.028;5.526;2023-03-23T02:18:29;0.73;;;0.50;;
40288;SDS011;28991;52.028;5.526;2023-03-23T02:27:23;0.60;;;0.50;;
40288;SDS011;28991;52.028;5.526;2023-03-23T02:30:35;0.40;;;0.40;;
40288;SDS011;28991;52.028;5.526;2023-03-23T02:36:08;0.40;;;0.40;;
40288;SDS011;28991;52.028;5.526;2023-03-23T02:38:38;0.55;;;0.40;;
40288;SDS011;28991;52.028;5.526;2023-03-23T02:41:06;0.50;;;0.50;;
40288;SDS011;28991;52.028;5.526;2023-03-23T02:43:34;0.82;;;0.47;;
40288;SDS011;28991;52.028;5.526;2023-03-23T02:46:07;0.40;;;0.40;;
40288;SDS011;28991;52.028;5.526;2023-03-23T02:48:35;0.50;;;0.40;;
40288;SDS011;28991;52.028;5.526;2023-03-23T02:51:03;0.63;;;0.40;;
40288;SDS011;28991;52.028;5.526;2023-03-23T02:53:31;0.70;;;0.43;;
40288;SDS011;28991;52.028;5.526;2023-03-23T02:55:59;0.40;;;0.30;;
40288;SDS011;28991;52.028;5.526;2023-03-23T02:58:27;0.50;;;0.50;;
40288;SDS011;28991;52.028;5.526;2023-03-23T03:00:54;0.85;;;0.50;;
40288;SDS011;28991;52.028;5.526;2023-03-23T03:03:21;0.57;;;0.50;;
40288;SDS011;28991;52.028;5.526;2023-03-23T03:08:26;0.55;;;0.50;;
40288;SDS011;28991;52.028;5.526;2023-03-23T03:11:06;0.30;;;0.30;;
40288;SDS011;28991;52.028;5.526;2023-03-23T03:13:57;0.50;;;0.50;;
40288;SDS011;28991;52.028;5.526;2023-03-23T03:16:33;0.52;;;0.50;;
40288;SDS011;28991;52.028;5.526;2023-03-23T03:21:41;0.98;;;0.50;;
40288;SDS011;28991;52.028;5.526;2023-03-23T03:24:09;0.50;;;0.50;;
40288;SDS011;28991;52.028;5.526;2023-03-23T03:26:37;0.60;;;0.60;;
40288;SDS011;28991;52.028;5.526;2023-03-23T03:29:06;0.50;;;0.50;;
40288;SDS011;28991;52.028;5.526;2023-03-23T03:31:33;1.27;;;0.60;;
40288;SDS011;28991;52.028;5.526;2023-03-23T03:34:03;0.60;;;0.50;;
40288;SDS011;28991;52.028;5.526;2023-03-23T03:36:31;0.40;;;0.40;;
40288;SDS011;28991;52.028;5.526;2023-03-23T03:39:00;0.50;;;0.40;;
40288;SDS011;28991;52.028;5.526;2023-03-23T03:41:33;0.55;;;0.50;;
40288;SDS011;28991;52.028;5.526;2023-03-23T03:44:00;0.73;;;0.60;;
40288;SDS011;28991;52.028;5.526;2023-03-23T03:46:26;0.70;;;0.60;;
40288;SDS011;28991;52.028;5.526;2023-03-23T03:48:54;1.25;;;0.77;;
40288;SDS011;28991;52.028;5.526;2023-03-23T03:51:21;0.70;;;0.35;;
40288;SDS011;28991;52.028;5.526;2023-03-23T03:53:47;0.40;;;0.40;;
40288;SDS011;28991;52.028;5.526;2023-03-23T03:56:13;0.40;;;0.40;;
40288;SDS011;28991;52.028;5.526;2023-03-23T03:58:38;0.45;;;0.45;;
40288;SDS011;28991;52.028;5.526;2023-03-23T04:01:07;0.35;;;0.35;;
40288;SDS011;28991;52.028;5.526;2023-03-23T04:03:35;0.50;;;0.50;;
40288;SDS011;28991;52.028;5.526;2023-03-23T04:06:01;0.60;;;0.55;;
40288;SDS011;28991;52.028;5.526;2023-03-23T04:08:27;0.50;;;0.50;;
40288;SDS011;28991;52.028;5.526;2023-03-23T04:10:53;0.40;;;0.40;;
40288;SDS011;28991;52.028;5.526;2023-03-23T04:13:19;0.50;;;0.50;;
40288;SDS011;28991;52.028;5.526;2023-03-23T04:15:46;0.73;;;0.60;;
40288;SDS011;28991;52.028;5.526;2023-03-23T04:18:12;1.15;;;0.40;;
40288;SDS011;28991;52.028;5.526;2023-03-23T04:20:40;0.45;;;0.40;;
40288;SDS011;28991;52.028;5.526;2023-03-23T04:25:38;0.50;;;0.50;;
40288;SDS011;28991;52.028;5.526;2023-03-23T04:28:06;1.10;;;0.50;;
40288;SDS011;28991;52.028;5.526;2023-03-23T04:30:32;1.25;;;0.57;;
40288;SDS011;28991;52.028;5.526;2023-03-23T04:32:57;0.40;;;0.40;;
40288;SDS011;28991;52.028;5.526;2023-03-23T04:35:25;0.50;;;0.40;;
40288;SDS011;28991;52.028;5.526;2023-03-23T04:37:51;1.10;;;0.60;;
40288;SDS011;28991;52.028;5.526;2023-03-23T04:40:18;0.45;;;0.40;;
40288;SDS011;28991;52.028;5.526;2023-03-23T04:42:45;0.40;;;0.40;;
40288;SDS011;28991;52.028;5.526;2023-03-23T04:45:11;0.40;;;0.30;;
40288;SDS011;28991;52.028;5.526;2023-03-23T04:47:40;0.77;;;0.50;;
40288;SDS011;28991;52.028;5.526;2023-03-23T04:52:33;0.68;;;0.57;;
40288;SDS011;28991;52.028;5.526;2023-03-23T04:54:58;0.82;;;0.50;;
40288;SDS011;28991;52.028;5.526;2023-03-23T04:57:24;0.50;;;0.50;;
40288;SDS011;28991;52.028;5.526;2023-03-23T04:59:53;0.50;;;0.50;;
40288;SDS011;28991;52.028;5.526;2023-03-23T05:02:19;0.43;;;0.40;;
40288;SDS011;28991;52.028;5.526;2023-03-23T05:04:44;0.50;;;0.50;;
40288;SDS011;28991;52.028;5.526;2023-03-23T05:07:10;0.60;;;0.47;;
40288;SDS011;28991;52.028;5.526;2023-03-23T05:09:36;0.85;;;0.60;;
40288;SDS011;28991;52.028;5.526;2023-03-23T05:12:05;0.50;;;0.40;;
40288;SDS011;28991;52.028;5.526;2023-03-23T05:14:32;0.40;;;0.40;;
40288;SDS011;28991;52.028;5.526;2023-03-23T05:16:57;0.40;;;0.40;;
40288;SDS011;28991;52.028;5.526;2023-03-23T05:19:23;0.52;;;0.47;;
40288;SDS011;28991;52.028;5.526;2023-03-23T05:21:49;0.50;;;0.50;;
40288;SDS011;28991;52.028;5.526;2023-03-23T05:24:14;0.35;;;0.35;;
40288;SDS011;28991;52.028;5.526;2023-03-23T05:26:40;0.60;;;0.50;;
40288;SDS011;28991;52.028;5.526;2023-03-23T05:29:05;0.50;;;0.50;;
40288;SDS011;28991;52.028;5.526;2023-03-23T05:31:31;0.40;;;0.40;;
40288;SDS011;28991;52.028;5.526;2023-03-23T05:33:57;0.50;;;0.50;;
40288;SDS011;28991;52.028;5.526;2023-03-23T05:36:22;0.57;;;0.57;;
40288;SDS011;28991;52.028;5.526;2023-03-23T05:38:50;0.55;;;0.55;;
40288;SDS011;28991;52.028;5.526;2023-03-23T05:41:16;0.40;;;0.40;;
40288;SDS011;28991;52.028;5.526;2023-03-23T05:43:41;0.47;;;0.47;;
40288;SDS011;28991;52.028;5.526;2023-03-23T05:46:08;1.33;;;0.40;;
40288;SDS011;28991;52.028;5.526;2023-03-23T05:48:34;0.32;;;0.32;;
40288;SDS011;28991;52.028;5.526;2023-03-23T05:50:59;0.75;;;0.50;;
40288;SDS011;28991;52.028;5.526;2023-03-23T05:53:25;0.63;;;0.50;;
40288;SDS011;28991;52.028;5.526;2023-03-23T05:55:51;0.40;;;0.40;;
40288;SDS011;28991;52.028;5.526;2023-03-23T05:58:17;0.65;;;0.45;;
40288;SDS011;28991;52.028;5.526;2023-03-23T06:00:43;0.45;;;0.45;;
40288;SDS011;28991;52.028;5.526;2023-03-23T06:03:10;0.77;;;0.70;;
40288;SDS011;28991;52.028;5.526;2023-03-23T06:05:41;0.50;;;0.50;;
40288;SDS011;28991;52.028;5.526;2023-03-23T06:08:08;0.50;;;0.50;;
40288;SDS011;28991;52.028;5.526;2023-03-23T06:10:34;0.60;;;0.60;;
40288;SDS011;28991;52.028;5.526;2023-03-23T06:13:01;1.58;;;0.50;;
40288;SDS011;28991;52.028;5.526;2023-03-23T06:15:27;0.65;;;0.57;;
40288;SDS011;28991;52.028;5.526;2023-03-23T06:17:59;0.68;;;0.60;;
40288;SDS011;28991;52.028;5.526;2023-03-23T06:20:28;0.90;;;0.55;;
40288;SDS011;28991;52.028;5.526;2023-03-23T06:22:55;0.50;;;0.50;;
40288;SDS011;28991;52.028;5.526;2023-03-23T06:25:21;1.30;;;0.60;;
40288;SDS011;28991;52.028;5.526;2023-03-23T06:27:49;0.50;;;0.47;;
40288;SDS011;28991;52.028;5.526;2023-03-23T06:30:17;1.13;;;0.60;;
40288;SDS011;28991;52.028;5.526;2023-03-23T06:32:43;1.92;;;1.08;;
40288;SDS011;28991;52.028;5.526;2023-03-23T06:35:12;4.43;;;0.70;;
40288;SDS011;28991;52.028;5.526;2023-03-23T06:37:38;0.55;;;0.50;;
40288;SDS011;28991;52.028;5.526;2023-03-23T06:40:04;1.35;;;0.50;;
40288;SDS011;28991;52.028;5.526;2023-03-23T06:42:34;0.50;;;0.50;;
40288;SDS011;28991;52.028;5.526;2023-03-23T06:45:00;1.98;;;0.82;;
40288;SDS011;28991;52.028;5.526;2023-03-23T06:47:27;1.00;;;0.70;;
40288;SDS011;28991;52.028;5.526;2023-03-23T06:49:58;0.50;;;0.45;;
40288;SDS011;28991;52.028;5.526;2023-03-23T06:52:24;0.40;;;0.35;;
40288;SDS011;28991;52.028;5.526;2023-03-23T06:54:51;1.20;;;0.77;;
40288;SDS011;28991;52.028;5.526;2023-03-23T06:57:17;0.70;;;0.63;;
40288;SDS011;28991;52.028;5.526;2023-03-23T06:59:43;0.68;;;0.50;;
40288;SDS011;28991;52.028;5.526;2023-03-23T07:02:10;1.33;;;0.60;;
40288;SDS011;28991;52.028;5.526;2023-03-23T07:04:37;0.50;;;0.50;;
40288;SDS011;28991;52.028;5.526;2023-03-23T07:07:03;2.05;;;0.50;;
40288;SDS011;28991;52.028;5.526;2023-03-23T07:09:30;0.82;;;0.60;;
40288;SDS011;28991;52.028;5.526;2023-03-23T07:11:56;0.30;;;0.30;;
40288;SDS011;28991;52.028;5.526;2023-03-23T07:14:22;0.50;;;0.43;;
40288;SDS011;28991;52.028;5.526;2023-03-23T07:16:47;1.63;;;0.70;;
40288;SDS011;28991;52.028;5.526;2023-03-23T07:19:13;3.85;;;0.95;;
40288;SDS011;28991;52.028;5.526;2023-03-23T07:21:39;0.65;;;0.65;;
40288;SDS011;28991;52.028;5.526;2023-03-23T07:24:05;2.38;;;0.45;;
40288;SDS011;28991;52.028;5.526;2023-03-23T07:26:31;0.85;;;0.60;;
40288;SDS011;28991;52.028;5.526;2023-03-23T07:28:57;0.70;;;0.40;;
40288;SDS011;28991;52.028;5.526;2023-03-23T07:31:22;1.33;;;0.52;;
40288;SDS011;28991;52.028;5.526;2023-03-23T07:33:48;0.82;;;0.50;;
40288;SDS011;28991;52.028;5.526;2023-03-23T07:36:14;1.42;;;0.80;;
40288;SDS011;28991;52.028;5.526;2023-03-23T07:38:39;0.70;;;0.55;;
40288;SDS011;28991;52.028;5.526;2023-03-23T07:41:06;1.00;;;0.47;;
40288;SDS011;28991;52.028;5.526;2023-03-23T07:43:32;0.68;;;0.50;;
40288;SDS011;28991;52.028;5.526;2023-03-23T07:45:58;2.78;;;0.60;;
40288;SDS011;28991;52.028;5.526;2023-03-23T07:48:23;1.23;;;0.80;;
40288;SDS011;28991;52.028;5.526;2023-03-23T07:50:49;3.65;;;0.63;;
40288;SDS011;28991;52.028;5.526;2023-03-23T07:53:15;1.35;;;0.70;;
40288;SDS011;28991;52.028;5.526;2023-03-23T07:55:40;0.80;;;0.50;;
40288;SDS011;28991;52.028;5.526;2023-03-23T07:58:06;0.77;;;0.75;;
40288;SDS011;28991;52.028;5.526;2023-03-23T08:00:32;0.77;;;0.50;;
40288;SDS011;28991;52.028;5.526;2023-03-23T08:02:58;2.55;;;0.57;;
40288;SDS011;28991;52.028;5.526;2023-03-23T08:05:24;0.85;;;0.43;;
40288;SDS011;28991;52.028;5.526;2023-03-23T08:07:51;4.65;;;0.77;;
40288;SDS011;28991;52.028;5.526;2023-03-23T08:10:19;1.42;;;0.70;;
40288;SDS011;28991;52.028;5.526;2023-03-23T08:12:52;0.80;;;0.60;;
40288;SDS011;28991;52.028;5.526;2023-03-23T08:15:20;0.70;;;0.50;;
40288;SDS011;28991;52.028;5.526;2023-03-23T08:17:46;1.17;;;0.52;;
40288;SDS011;28991;52.028;5.526;2023-03-23T08:20:13;0.75;;;0.50;;
40288;SDS011;28991;52.028;5.526;2023-03-23T08:22:41;0.50;;;0.50;;
40288;SDS011;28991;52.028;5.526;2023-03-23T08:25:10;1.70;;;0.65;;
40288;SDS011;28991;52.028;5.526;2023-03-23T08:27:37;0.75;;;0.60;;
40288;SDS011;28991;52.028;5.526;2023-03-23T08:30:08;0.50;;;0.50;;
40288;SDS011;28991;52.028;5.526;2023-03-23T08:32:35;0.77;;;0.60;;
40288;SDS011;28991;52.028;5.526;2023-03-23T08:35:01;0.70;;;0.63;;
40288;SDS011;28991;52.028;5.526;2023-03-23T08:37:27;0.68;;;0.55;;
40288;SDS011;28991;52.028;5.526;2023-03-23T08:39:55;0.60;;;0.60;;
40288;SDS011;28991;52.028;5.526;2023-03-23T08:42:22;3.38;;;0.68;;
40288;SDS011;28991;52.028;5.526;2023-03-23T08:44:49;1.55;;;0.90;;
40288;SDS011;28991;52.028;5.526;2023-03-23T08:47:15;1.33;;;0.60;;
40288;SDS011;28991;52.028;5.526;2023-03-23T08:49:42;2.30;;;0.95;;
40288;SDS011;28991;52.028;5.526;2023-03-23T08:52:09;2.15;;;0.80;;
40288;SDS011;28991;52.028;5.526;2023-03-23T08:54:35;4.50;;;0.90;;
40288;SDS011;28991;52.028;5.526;2023-03-23T08:57:01;1.50;;;0.55;;
40288;SDS011;28991;52.028;5.526;2023-03-23T08:59:27;1.45;;;0.70;;
40288;SDS011;28991;52.028;5.526;2023-03-23T09:01:53;2.65;;;0.73;;
40288;SDS011;28991;52.028;5.526;2023-03-23T09:04:19;3.85;;;0.80;;
40288;SDS011;28991;52.028;5.526;2023-03-23T09:06:45;2.28;;;0.60;;
40288;SDS011;28991;52.028;5.526;2023-03-23T09:09:12;3.15;;;0.63;;
40288;SDS011;28991;52.028;5.526;2023-03-23T09:11:38;1.90;;;0.63;;
40288;SDS011;28991;52.028;5.526;2023-03-23T09:14:05;1.98;;;0.55;;
40288;SDS011;28991;52.028;5.526;2023-03-23T09:16:32;3.33;;;0.77;;
40288;SDS011;28991;52.028;5.526;2023-03-23T09:18:59;1.40;;;0.50;;
40288;SDS011;28991;52.028;5.526;2023-03-23T09:21:25;0.95;;;0.70;;
40288;SDS011;28991;52.028;5.526;2023-03-23T09:23:52;2.95;;;0.70;;
40288;SDS011;28991;52.028;5.526;2023-03-23T09:26:18;2.05;;;0.75;;
40288;SDS011;28991;52.028;5.526;2023-03-23T09:28:44;1.58;;;0.40;;
40288;SDS011;28991;52.028;5.526;2023-03-23T09:31:11;0.98;;;0.70;;
40288;SDS011;28991;52.028;5.526;2023-03-23T09:33:37;0.85;;;0.70;;
40288;SDS011;28991;52.028;5.526;2023-03-23T09:36:03;0.50;;;0.50;;
40288;SDS011;28991;52.028;5.526;2023-03-23T09:38:31;1.95;;;0.70;;
40288;SDS011;28991;52.028;5.526;2023-03-23T09:48:57;9.55;;;0.90;;
40288;SDS011;28991;52.028;5.526;2023-03-23T09:54:20;2.88;;;0.60;;
40288;SDS011;28991;52.028;5.526;2023-03-23T09:56:51;2.78;;;0.80;;
40288;SDS011;28991;52.028;5.526;2023-03-23T09:59:31;1.75;;;0.95;;
40288;SDS011;28991;52.028;5.526;2023-03-23T10:01:59;0.95;;;0.73;;
40288;SDS011;28991;52.028;5.526;2023-03-23T10:07:19;1.38;;;0.50;;
40288;SDS011;28991;52.028;5.526;2023-03-23T10:09:51;3.75;;;0.88;;
40288;SDS011;28991;52.028;5.526;2023-03-23T10:15:02;1.25;;;0.85;;
40288;SDS011;28991;52.028;5.526;2023-03-23T10:17:34;1.70;;;0.60;;
40288;SDS011;28991;52.028;5.526;2023-03-23T10:22:46;1.08;;;0.57;;
40288;SDS011;28991;52.028;5.526;2023-03-23T10:25:22;0.75;;;0.50;;
40288;SDS011;28991;52.028;5.526;2023-03-23T10:30:36;1.58;;;0.55;;
40288;SDS011;28991;52.028;5.526;2023-03-23T10:38:38;5.00;;;1.05;;
40288;SDS011;28991;52.028;5.526;2023-03-23T10:41:12;1.73;;;0.60;;
40288;SDS011;28991;52.028;5.526;2023-03-23T10:43:40;2.92;;;1.15;;
40288;SDS011;28991;52.028;5.526;2023-03-23T10:46:14;1.65;;;0.90;;
40288;SDS011;28991;52.028;5.526;2023-03-23T10:48:50;1.33;;;0.80;;
40288;SDS011;28991;52.028;5.526;2023-03-23T10:51:19;3.55;;;1.02;;
40288;SDS011;28991;52.028;5.526;2023-03-23T10:53:51;1.35;;;0.73;;
40288;SDS011;28991;52.028;5.526;2023-03-23T10:58:52;3.30;;;0.90;;
40288;SDS011;28991;52.028;5.526;2023-03-23T11:01:20;1.92;;;0.90;;
40288;SDS011;28991;52.028;5.526;2023-03-23T11:03:57;1.75;;;0.77;;
40288;SDS011;28991;52.028;5.526;2023-03-23T11:06:32;2.55;;;1.05;;
40288;SDS011;28991;52.028;5.526;2023-03-23T11:09:08;1.63;;;0.90;;
40288;SDS011;28991;52.028;5.526;2023-03-23T11:11:41;2.58;;;0.95;;
40288;SDS011;28991;52.028;5.526;2023-03-23T11:19:22;1.65;;;0.73;;
40288;SDS011;28991;52.028;5.526;2023-03-23T11:22:12;2.42;;;0.73;;
40288;SDS011;28991;52.028;5.526;2023-03-23T11:24:50;3.55;;;0.88;;
40288;SDS011;28991;52.028;5.526;2023-03-23T11:27:18;1.38;;;1.02;;
40288;SDS011;28991;52.028;5.526;2023-03-23T11:29:55;3.00;;;1.00;;
40288;SDS011;28991;52.028;5.526;2023-03-23T11:32:26;1.45;;;0.60;;
40288;SDS011;28991;52.028;5.526;2023-03-23T11:34:55;4.28;;;0.85;;
40288;SDS011;28991;52.028;5.526;2023-03-23T11:37:43;4.55;;;0.90;;
40288;SDS011;28991;52.028;5.526;2023-03-23T11:40:16;3.13;;;0.75;;
40288;SDS011;28991;52.028;5.526;2023-03-23T11:42:45;2.20;;;1.00;;
40288;SDS011;28991;52.028;5.526;2023-03-23T11:47:43;4.03;;;1.00;;
40288;SDS011;28991;52.028;5.526;2023-03-23T11:50:27;2.55;;;1.00;;
40288;SDS011;28991;52.028;5.526;2023-03-23T11:55:51;3.40;;;1.00;;
40288;SDS011;28991;52.028;5.526;2023-03-23T11:58:37;4.10;;;1.00;;
40288;SDS011;28991;52.028;5.526;2023-03-23T12:03:49;5.45;;;1.30;;
40288;SDS011;28991;52.028;5.526;2023-03-23T12:11:49;3.33;;;1.35;;
40288;SDS011;28991;52.028;5.526;2023-03-23T12:14:48;2.40;;;1.20;;
40288;SDS011;28991;52.028;5.526;2023-03-23T12:31:18;3.67;;;1.25;;
40288;SDS011;28991;52.028;5.526;2023-03-23T12:44:53;5.95;;;1.13;;
40288;SDS011;28991;52.028;5.526;2023-03-23T12:47:32;3.83;;;1.10;;
40288;SDS011;28991;52.028;5.526;2023-03-23T12:52:37;5.68;;;1.17;;
40288;SDS011;28991;52.028;5.526;2023-03-23T12:57:45;2.47;;;0.90;;
40288;SDS011;28991;52.028;5.526;2023-03-23T13:00:35;3.20;;;0.95;;
40288;SDS011;28991;52.028;5.526;2023-03-23T13:08:22;1.20;;;0.73;;
40288;SDS011;28991;52.028;5.526;2023-03-23T13:10:59;13.98;;;0.77;;
40288;SDS011;28991;52.028;5.526;2023-03-23T13:13:55;1.58;;;0.60;;
40288;SDS011;28991;52.028;5.526;2023-03-23T13:24:39;2.20;;;1.10;;
40288;SDS011;28991;52.028;5.526;2023-03-23T13:27:11;1.02;;;0.52;;
40288;SDS011;28991;52.028;5.526;2023-03-23T13:29:43;4.70;;;0.70;;
40288;SDS011;28991;52.028;5.526;2023-03-23T13:32:12;1.23;;;0.63;;
40288;SDS011;28991;52.028;5.526;2023-03-23T13:34:41;2.28;;;0.75;;
40288;SDS011;28991;52.028;5.526;2023-03-23T13:39:50;0.70;;;0.47;;
40288;SDS011;28991;52.028;5.526;2023-03-23T13:42:22;1.10;;;0.70;;
40288;SDS011;28991;52.028;5.526;2023-03-23T14:03:01;1.67;;;0.70;;
40288;SDS011;28991;52.028;5.526;2023-03-23T14:10:41;2.55;;;0.80;;
40288;SDS011;28991;52.028;5.526;2023-03-23T14:13:20;2.70;;;0.80;;
40288;SDS011;28991;52.028;5.526;2023-03-23T14:15:57;2.47;;;1.20;;
40288;SDS011;28991;52.028;5.526;2023-03-23T14:18:23;1.60;;;0.77;;
40288;SDS011;28991;52.028;5.526;2023-03-23T14:20:54;2.22;;;1.00;;
40288;SDS011;28991;52.028;5.526;2023-03-23T14:23:20;2.50;;;0.65;;
40288;SDS011;28991;52.028;5.526;2023-03-23T14:25:54;1.88;;;0.68;;
40288;SDS011;28991;52.028;5.526;2023-03-23T14:28:21;1.90;;;0.88;;
40288;SDS011;28991;52.028;5.526;2023-03-23T14:30:47;1.73;;;0.60;;
40288;SDS011;28991;52.028;5.526;2023-03-23T14:33:17;2.20;;;0.70;;
40288;SDS011;28991;52.028;5.526;2023-03-23T14:35:44;2.08;;;0.70;;
40288;SDS011;28991;52.028;5.526;2023-03-23T14:38:17;1.83;;;0.60;;
40288;SDS011;28991;52.028;5.526;2023-03-23T14:40:45;2.47;;;0.80;;
40288;SDS011;28991;52.028;5.526;2023-03-23T14:43:13;1.60;;;0.60;;
40288;SDS011;28991;52.028;5.526;2023-03-23T14:45:42;1.05;;;0.60;;
40288;SDS011;28991;52.028;5.526;2023-03-23T14:48:08;1.05;;;0.60;;
40288;SDS011;28991;52.028;5.526;2023-03-23T14:50:42;1.45;;;0.65;;
40288;SDS011;28991;52.028;5.526;2023-03-23T14:53:25;0.75;;;0.50;;
40288;SDS011;28991;52.028;5.526;2023-03-23T14:55:59;1.45;;;0.73;;
40288;SDS011;28991;52.028;5.526;2023-03-23T14:58:27;0.75;;;0.65;;
40288;SDS011;28991;52.028;5.526;2023-03-23T15:03:21;0.70;;;0.45;;
40288;SDS011;28991;52.028;5.526;2023-03-23T15:05:49;1.10;;;0.50;;
40288;SDS011;28991;52.028;5.526;2023-03-23T15:08:22;0.70;;;0.50;;
40288;SDS011;28991;52.028;5.526;2023-03-23T15:11:39;0.47;;;0.40;;
40288;SDS011;28991;52.028;5.526;2023-03-23T15:13:52;1.85;;;0.50;;
40288;SDS011;28991;52.028;5.526;2023-03-23T15:16:24;1.10;;;0.70;;
40288;SDS011;28991;52.028;5.526;2023-03-23T15:21:27;0.95;;;0.60;;
40288;SDS011;28991;52.028;5.526;2023-03-23T15:23:55;2.40;;;0.60;;
40288;SDS011;28991;52.028;5.526;2023-03-23T15:28:58;0.85;;;0.43;;
40288;SDS011;28991;52.028;5.526;2023-03-23T15:31:26;1.08;;;0.50;;
40288;SDS011;28991;52.028;5.526;2023-03-23T15:33:55;0.95;;;0.57;;
40288;SDS011;28991;52.028;5.526;2023-03-23T15:36:24;0.70;;;0.38;;
40288;SDS011;28991;52.028;5.526;2023-03-23T15:38:50;1.00;;;0.50;;
40288;SDS011;28991;52.028;5.526;2023-03-23T15:41:23;1.35;;;0.70;;
40288;SDS011;28991;52.028;5.526;2023-03-23T15:43:54;1.95;;;0.40;;
40288;SDS011;28991;52.028;5.526;2023-03-23T15:46:27;1.20;;;0.43;;
40288;SDS011;28991;52.028;5.526;2023-03-23T15:49:04;0.90;;;0.50;;
40288;SDS011;28991;52.028;5.526;2023-03-23T15:51:34;1.63;;;0.40;;
40288;SDS011;28991;52.028;5.526;2023-03-23T15:54:00;0.32;;;0.32;;
40288;SDS011;28991;52.028;5.526;2023-03-23T15:56:26;0.50;;;0.40;;
40288;SDS011;28991;52.028;5.526;2023-03-23T15:58:52;0.65;;;0.30;;
40288;SDS011;28991;52.028;5.526;2023-03-23T16:01:22;0.40;;;0.40;;
40288;SDS011;28991;52.028;5.526;2023-03-23T16:03:51;0.32;;;0.32;;
40288;SDS011;28991;52.028;5.526;2023-03-23T16:06:17;2.72;;;0.50;;
40288;SDS011;28991;52.028;5.526;2023-03-23T16:08:44;0.73;;;0.30;;
40288;SDS011;28991;52.028;5.526;2023-03-23T16:11:14;0.50;;;0.35;;
40288;SDS011;28991;52.028;5.526;2023-03-23T16:13:41;0.40;;;0.30;;
40288;SDS011;28991;52.028;5.526;2023-03-23T16:16:15;0.38;;;0.30;;
40288;SDS011;28991;52.028;5.526;2023-03-23T16:18:43;0.20;;;0.20;;
40288;SDS011;28991;52.028;5.526;2023-03-23T16:21:08;0.30;;;0.30;;
40288;SDS011;28991;52.028;5.526;2023-03-23T16:23:34;0.80;;;0.40;;
40288;SDS011;28991;52.028;5.526;2023-03-23T16:26:00;0.30;;;0.30;;
40288;SDS011;28991;52.028;5.526;2023-03-23T16:28:25;0.63;;;0.30;;
40288;SDS011;28991;52.028;5.526;2023-03-23T16:30:51;0.25;;;0.25;;
40288;SDS011;28991;52.028;5.526;2023-03-23T16:33:16;0.20;;;0.20;;
40288;SDS011;28991;52.028;5.526;2023-03-23T16:35:42;0.32;;;0.32;;
40288;SDS011;28991;52.028;5.526;2023-03-23T16:38:12;0.50;;;0.40;;
40288;SDS011;28991;52.028;5.526;2023-03-23T16:40:40;0.38;;;0.35;;
40288;SDS011;28991;52.028;5.526;2023-03-23T16:43:06;0.20;;;0.20;;
40288;SDS011;28991;52.028;5.526;2023-03-23T16:45:31;0.30;;;0.30;;
40288;SDS011;28991;52.028;5.526;2023-03-23T16:47:57;0.75;;;0.38;;
40288;SDS011;28991;52.028;5.526;2023-03-23T16:50:25;0.45;;;0.38;;
40288;SDS011;28991;52.028;5.526;2023-03-23T16:52:53;0.32;;;0.30;;
40288;SDS011;28991;52.028;5.526;2023-03-23T16:55:19;0.65;;;0.30;;
40288;SDS011;28991;52.028;5.526;2023-03-23T16:57:44;0.40;;;0.40;;
40288;SDS011;28991;52.028;5.526;2023-03-23T17:00:11;0.40;;;0.35;;
40288;SDS011;28991;52.028;5.526;2023-03-23T17:02:40;0.30;;;0.30;;
40288;SDS011;28991;52.028;5.526;2023-03-23T17:05:07;0.40;;;0.40;;
40288;SDS011;28991;52.028;5.526;2023-03-23T17:07:34;0.38;;;0.38;;
40288;SDS011;28991;52.028;5.526;2023-03-23T17:10:01;0.50;;;0.43;;
40288;SDS011;28991;52.028;5.526;2023-03-23T17:12:27;0.38;;;0.30;;
40288;SDS011;28991;52.028;5.526;2023-03-23T17:14:52;0.43;;;0.40;;
40288;SDS011;28991;52.028;5.526;2023-03-23T17:17:18;0.63;;;0.30;;
40288;SDS011;28991;52.028;5.526;2023-03-23T17:19:43;0.30;;;0.30;;
40288;SDS011;28991;52.028;5.526;2023-03-23T17:22:10;0.20;;;0.20;;
40288;SDS011;28991;52.028;5.526;2023-03-23T17:24:35;0.32;;;0.32;;
40288;SDS011;28991;52.028;5.526;2023-03-23T17:27:01;0.38;;;0.38;;
40288;SDS011;28991;52.028;5.526;2023-03-23T17:29:26;0.57;;;0.30;;